sensor_id;sensor_type;location;lat;lon;timestamp;P1;durP1;ratioP1;P2;durP2;ratioP2
51312;SDS011;37397;53.226;10.400;2023-06-26T00:01:02;10.90;;;8.50;;
51312;SDS011;37397;53.226;10.400;2023-06-26T00:03:29;10.00;;;8.18;;
51312;SDS011;37397;53.226;10.400;2023-06-26T00:05:55;12.00;;;8.40;;
51312;SDS011;37397;53.226;10.400;2023-06-26T00:08:27;9.77;;;8.55;;
51312;SDS011;37397;53.226;10.400;2023-06-26T00:10:54;9.70;;;8.70;;
51312;SDS011;37397;53.226;10.400;2023-06-26T00:13:21;9.55;;;8.57;;
51312;SDS011;37397;53.226;10.400;2023-06-26T00:15:49;10.10;;;8.45;;
51312;SDS011;37397;53.226;10.400;2023-06-26T00:18:17;10.38;;;8.82;;
51312;SDS011;37397;53.226;10.400;2023-06-26T00:20:43;9.40;;;8.02;;
51312;SDS011;37397;53.226;10.400;2023-06-26T00:23:11;9.40;;;8.35;;
51312;SDS011;37397;53.226;10.400;2023-06-26T00:25:43;10.23;;;8.40;;
51312;SDS011;37397;53.226;10.400;2023-06-26T00:28:10;10.95;;;8.65;;
51312;SDS011;37397;53.226;10.400;2023-06-26T00:30:37;10.13;;;8.38;;
51312;SDS011;37397;53.226;10.400;2023-06-26T00:33:04;10.60;;;8.77;;
51312;SDS011;37397;53.226;10.400;2023-06-26T00:35:30;9.25;;;8.25;;
51312;SDS011;37397;53.226;10.400;2023-06-26T00:37:57;10.00;;;8.73;;
51312;SDS011;37397;53.226;10.400;2023-06-26T00:40:23;9.70;;;7.78;;
51312;SDS011;37397;53.226;10.400;2023-06-26T00:42:50;10.52;;;8.60;;
51312;SDS011;37397;53.226;10.400;2023-06-26T00:45:16;9.27;;;8.15;;
51312;SDS011;37397;53.226;10.400;2023-06-26T00:47:55;10.40;;;8.73;;
51312;SDS011;37397;53.226;10.400;2023-06-26T00:50:22;9.63;;;7.95;;
51312;SDS011;37397;53.226;10.400;2023-06-26T00:52:49;10.90;;;8.52;;
51312;SDS011;37397;53.226;10.400;2023-06-26T00:55:15;9.63;;;8.45;;
51312;SDS011;37397;53.226;10.400;2023-06-26T00:57:42;9.27;;;8.10;;
51312;SDS011;37397;53.226;10.400;2023-06-26T01:00:12;10.45;;;8.23;;
51312;SDS011;37397;53.226;10.400;2023-06-26T01:02:39;8.75;;;7.50;;
51312;SDS011;37397;53.226;10.400;2023-06-26T01:05:06;9.55;;;8.55;;
51312;SDS011;37397;53.226;10.400;2023-06-26T01:07:34;9.48;;;8.40;;
51312;SDS011;37397;53.226;10.400;2023-06-26T01:10:03;10.85;;;8.75;;
51312;SDS011;37397;53.226;10.400;2023-06-26T01:12:31;9.55;;;8.02;;
51312;SDS011;37397;53.226;10.400;2023-06-26T01:14:59;9.27;;;7.78;;
51312;SDS011;37397;53.226;10.400;2023-06-26T01:17:27;10.07;;;8.30;;
51312;SDS011;37397;53.226;10.400;2023-06-26T01:20:01;9.43;;;8.35;;
51312;SDS011;37397;53.226;10.400;2023-06-26T01:22:37;9.45;;;8.45;;
51312;SDS011;37397;53.226;10.400;2023-06-26T01:25:18;9.15;;;7.68;;
51312;SDS011;37397;53.226;10.400;2023-06-26T01:27:47;14.25;;;8.18;;
51312;SDS011;37397;53.226;10.400;2023-06-26T01:30:16;10.93;;;8.07;;
51312;SDS011;37397;53.226;10.400;2023-06-26T01:32:44;11.15;;;8.05;;
51312;SDS011;37397;53.226;10.400;2023-06-26T01:35:11;10.15;;;8.70;;
51312;SDS011;37397;53.226;10.400;2023-06-26T01:37:39;8.63;;;7.72;;
51312;SDS011;37397;53.226;10.400;2023-06-26T01:40:07;10.70;;;7.78;;
51312;SDS011;37397;53.226;10.400;2023-06-26T01:42:34;11.00;;;8.32;;
51312;SDS011;37397;53.226;10.400;2023-06-26T01:45:09;10.30;;;8.18;;
51312;SDS011;37397;53.226;10.400;2023-06-26T01:47:40;9.25;;;7.82;;
51312;SDS011;37397;53.226;10.400;2023-06-26T01:50:09;9.25;;;7.90;;
51312;SDS011;37397;53.226;10.400;2023-06-26T01:52:41;9.05;;;7.88;;
51312;SDS011;37397;53.226;10.400;2023-06-26T01:55:17;11.13;;;8.35;;
51312;SDS011;37397;53.226;10.400;2023-06-26T01:58:03;12.68;;;8.43;;
51312;SDS011;37397;53.226;10.400;2023-06-26T02:00:30;9.90;;;7.80;;
51312;SDS011;37397;53.226;10.400;2023-06-26T02:02:58;10.82;;;8.85;;
51312;SDS011;37397;53.226;10.400;2023-06-26T02:05:25;10.00;;;8.15;;
51312;SDS011;37397;53.226;10.400;2023-06-26T02:07:51;9.30;;;8.18;;
51312;SDS011;37397;53.226;10.400;2023-06-26T02:10:18;9.82;;;8.45;;
51312;SDS011;37397;53.226;10.400;2023-06-26T02:12:44;11.05;;;8.32;;
51312;SDS011;37397;53.226;10.400;2023-06-26T02:15:12;9.70;;;8.45;;
51312;SDS011;37397;53.226;10.400;2023-06-26T02:17:39;10.85;;;8.35;;
51312;SDS011;37397;53.226;10.400;2023-06-26T02:20:06;9.85;;;8.00;;
51312;SDS011;37397;53.226;10.400;2023-06-26T02:22:35;10.45;;;8.63;;
51312;SDS011;37397;53.226;10.400;2023-06-26T02:25:01;9.85;;;8.13;;
51312;SDS011;37397;53.226;10.400;2023-06-26T02:27:28;9.27;;;8.27;;
51312;SDS011;37397;53.226;10.400;2023-06-26T02:29:55;9.48;;;8.23;;
51312;SDS011;37397;53.226;10.400;2023-06-26T02:32:21;10.75;;;9.00;;
51312;SDS011;37397;53.226;10.400;2023-06-26T02:34:48;10.45;;;8.48;;
51312;SDS011;37397;53.226;10.400;2023-06-26T02:37:18;10.07;;;8.68;;
51312;SDS011;37397;53.226;10.400;2023-06-26T02:39:45;11.60;;;8.20;;
51312;SDS011;37397;53.226;10.400;2023-06-26T02:42:11;10.20;;;8.23;;
51312;SDS011;37397;53.226;10.400;2023-06-26T02:44:38;9.73;;;7.90;;
51312;SDS011;37397;53.226;10.400;2023-06-26T02:47:05;9.82;;;8.40;;
51312;SDS011;37397;53.226;10.400;2023-06-26T02:49:34;11.07;;;8.02;;
51312;SDS011;37397;53.226;10.400;2023-06-26T02:52:00;8.85;;;7.65;;
51312;SDS011;37397;53.226;10.400;2023-06-26T02:54:28;9.32;;;8.15;;
51312;SDS011;37397;53.226;10.400;2023-06-26T02:57:01;9.85;;;8.30;;
51312;SDS011;37397;53.226;10.400;2023-06-26T02:59:29;11.23;;;8.93;;
51312;SDS011;37397;53.226;10.400;2023-06-26T03:01:57;9.40;;;8.10;;
51312;SDS011;37397;53.226;10.400;2023-06-26T03:04:41;9.57;;;8.13;;
51312;SDS011;37397;53.226;10.400;2023-06-26T03:07:11;9.73;;;7.88;;
51312;SDS011;37397;53.226;10.400;2023-06-26T03:09:39;9.82;;;8.27;;
51312;SDS011;37397;53.226;10.400;2023-06-26T03:12:07;9.30;;;7.93;;
51312;SDS011;37397;53.226;10.400;2023-06-26T03:14:34;10.82;;;8.00;;
51312;SDS011;37397;53.226;10.400;2023-06-26T03:17:00;10.88;;;8.38;;
51312;SDS011;37397;53.226;10.400;2023-06-26T03:19:31;10.60;;;8.23;;
51312;SDS011;37397;53.226;10.400;2023-06-26T03:22:14;11.18;;;7.90;;
51312;SDS011;37397;53.226;10.400;2023-06-26T03:24:41;8.95;;;7.97;;
51312;SDS011;37397;53.226;10.400;2023-06-26T03:27:07;11.05;;;8.40;;
51312;SDS011;37397;53.226;10.400;2023-06-26T03:29:35;10.15;;;8.52;;
51312;SDS011;37397;53.226;10.400;2023-06-26T03:32:02;11.05;;;8.30;;
51312;SDS011;37397;53.226;10.400;2023-06-26T03:34:29;10.20;;;8.23;;
51312;SDS011;37397;53.226;10.400;2023-06-26T03:36:55;10.60;;;8.63;;
51312;SDS011;37397;53.226;10.400;2023-06-26T03:39:22;9.88;;;8.27;;
51312;SDS011;37397;53.226;10.400;2023-06-26T03:41:49;9.05;;;8.00;;
51312;SDS011;37397;53.226;10.400;2023-06-26T03:44:15;11.63;;;8.50;;
51312;SDS011;37397;53.226;10.400;2023-06-26T03:46:46;11.10;;;8.18;;
51312;SDS011;37397;53.226;10.400;2023-06-26T03:49:13;11.07;;;8.50;;
51312;SDS011;37397;53.226;10.400;2023-06-26T03:51:40;10.27;;;8.13;;
51312;SDS011;37397;53.226;10.400;2023-06-26T03:54:06;9.23;;;7.93;;
51312;SDS011;37397;53.226;10.400;2023-06-26T03:56:33;10.10;;;7.97;;
51312;SDS011;37397;53.226;10.400;2023-06-26T03:58:59;10.02;;;8.48;;
51312;SDS011;37397;53.226;10.400;2023-06-26T04:01:26;10.55;;;8.73;;
51312;SDS011;37397;53.226;10.400;2023-06-26T04:03:54;10.43;;;8.00;;
51312;SDS011;37397;53.226;10.400;2023-06-26T04:06:20;12.10;;;8.20;;
51312;SDS011;37397;53.226;10.400;2023-06-26T04:08:47;12.07;;;8.73;;
51312;SDS011;37397;53.226;10.400;2023-06-26T04:11:15;10.05;;;8.30;;
51312;SDS011;37397;53.226;10.400;2023-06-26T04:13:41;11.70;;;8.70;;
51312;SDS011;37397;53.226;10.400;2023-06-26T04:16:08;10.77;;;8.45;;
51312;SDS011;37397;53.226;10.400;2023-06-26T04:18:34;10.40;;;8.45;;
51312;SDS011;37397;53.226;10.400;2023-06-26T04:21:04;10.73;;;8.02;;
51312;SDS011;37397;53.226;10.400;2023-06-26T04:23:38;9.55;;;7.88;;
51312;SDS011;37397;53.226;10.400;2023-06-26T04:26:06;10.82;;;8.73;;
51312;SDS011;37397;53.226;10.400;2023-06-26T04:28:34;10.50;;;8.63;;
51312;SDS011;37397;53.226;10.400;2023-06-26T04:31:01;11.57;;;9.05;;
51312;SDS011;37397;53.226;10.400;2023-06-26T04:33:29;10.15;;;7.88;;
51312;SDS011;37397;53.226;10.400;2023-06-26T04:35:56;11.48;;;8.45;;
51312;SDS011;37397;53.226;10.400;2023-06-26T04:38:23;9.35;;;7.78;;
51312;SDS011;37397;53.226;10.400;2023-06-26T04:40:49;11.82;;;8.63;;
51312;SDS011;37397;53.226;10.400;2023-06-26T04:43:16;10.60;;;8.35;;
51312;SDS011;37397;53.226;10.400;2023-06-26T04:45:42;11.13;;;8.57;;
51312;SDS011;37397;53.226;10.400;2023-06-26T04:48:09;9.68;;;8.20;;
51312;SDS011;37397;53.226;10.400;2023-06-26T04:50:35;10.80;;;7.47;;
51312;SDS011;37397;53.226;10.400;2023-06-26T04:53:02;10.25;;;8.10;;
51312;SDS011;37397;53.226;10.400;2023-06-26T04:55:29;10.90;;;8.48;;
51312;SDS011;37397;53.226;10.400;2023-06-26T04:57:56;10.88;;;8.23;;
51312;SDS011;37397;53.226;10.400;2023-06-26T05:00:23;11.02;;;8.20;;
51312;SDS011;37397;53.226;10.400;2023-06-26T05:02:51;10.73;;;8.32;;
51312;SDS011;37397;53.226;10.400;2023-06-26T05:05:28;10.13;;;8.07;;
51312;SDS011;37397;53.226;10.400;2023-06-26T05:07:55;11.65;;;8.75;;
51312;SDS011;37397;53.226;10.400;2023-06-26T05:10:22;9.88;;;8.05;;
51312;SDS011;37397;53.226;10.400;2023-06-26T05:12:48;11.38;;;8.55;;
51312;SDS011;37397;53.226;10.400;2023-06-26T05:15:15;9.88;;;8.25;;
51312;SDS011;37397;53.226;10.400;2023-06-26T05:17:41;10.93;;;8.45;;
51312;SDS011;37397;53.226;10.400;2023-06-26T05:20:08;10.15;;;8.48;;
51312;SDS011;37397;53.226;10.400;2023-06-26T05:22:35;11.25;;;7.78;;
51312;SDS011;37397;53.226;10.400;2023-06-26T05:25:05;10.50;;;8.23;;
51312;SDS011;37397;53.226;10.400;2023-06-26T05:27:34;10.35;;;8.27;;
51312;SDS011;37397;53.226;10.400;2023-06-26T05:30:02;11.40;;;8.00;;
51312;SDS011;37397;53.226;10.400;2023-06-26T05:32:29;9.80;;;7.30;;
51312;SDS011;37397;53.226;10.400;2023-06-26T05:35:00;11.38;;;8.10;;
51312;SDS011;37397;53.226;10.400;2023-06-26T05:37:28;9.80;;;7.15;;
51312;SDS011;37397;53.226;10.400;2023-06-26T05:39:56;9.60;;;7.32;;
51312;SDS011;37397;53.226;10.400;2023-06-26T05:42:23;10.13;;;7.07;;
51312;SDS011;37397;53.226;10.400;2023-06-26T05:44:50;9.35;;;7.32;;
51312;SDS011;37397;53.226;10.400;2023-06-26T05:47:17;10.35;;;8.10;;
51312;SDS011;37397;53.226;10.400;2023-06-26T05:49:43;10.80;;;7.28;;
51312;SDS011;37397;53.226;10.400;2023-06-26T05:52:10;9.20;;;7.13;;
51312;SDS011;37397;53.226;10.400;2023-06-26T05:54:38;10.10;;;6.90;;
51312;SDS011;37397;53.226;10.400;2023-06-26T05:57:04;8.95;;;7.65;;
51312;SDS011;37397;53.226;10.400;2023-06-26T05:59:32;8.60;;;7.00;;
51312;SDS011;37397;53.226;10.400;2023-06-26T06:01:59;11.20;;;7.50;;
51312;SDS011;37397;53.226;10.400;2023-06-26T06:04:25;10.77;;;6.95;;
51312;SDS011;37397;53.226;10.400;2023-06-26T06:06:52;10.50;;;7.53;;
51312;SDS011;37397;53.226;10.400;2023-06-26T06:09:18;12.85;;;8.13;;
51312;SDS011;37397;53.226;10.400;2023-06-26T06:11:45;10.05;;;7.10;;
51312;SDS011;37397;53.226;10.400;2023-06-26T06:14:11;10.00;;;7.95;;
51312;SDS011;37397;53.226;10.400;2023-06-26T06:16:38;10.15;;;7.30;;
51312;SDS011;37397;53.226;10.400;2023-06-26T06:19:04;13.85;;;8.07;;
51312;SDS011;37397;53.226;10.400;2023-06-26T06:21:33;11.93;;;7.80;;
51312;SDS011;37397;53.226;10.400;2023-06-26T06:23:59;11.05;;;7.95;;
51312;SDS011;37397;53.226;10.400;2023-06-26T06:26:27;10.07;;;7.22;;
51312;SDS011;37397;53.226;10.400;2023-06-26T06:28:53;10.43;;;7.68;;
51312;SDS011;37397;53.226;10.400;2023-06-26T06:31:20;10.32;;;7.88;;
51312;SDS011;37397;53.226;10.400;2023-06-26T06:33:46;11.43;;;7.60;;
51312;SDS011;37397;53.226;10.400;2023-06-26T06:36:13;10.80;;;7.32;;
51312;SDS011;37397;53.226;10.400;2023-06-26T06:38:42;9.82;;;7.05;;
51312;SDS011;37397;53.226;10.400;2023-06-26T06:41:10;10.48;;;6.90;;
51312;SDS011;37397;53.226;10.400;2023-06-26T06:43:36;8.98;;;6.90;;
51312;SDS011;37397;53.226;10.400;2023-06-26T06:46:03;12.57;;;7.57;;
51312;SDS011;37397;53.226;10.400;2023-06-26T06:48:30;10.85;;;7.28;;
51312;SDS011;37397;53.226;10.400;2023-06-26T06:50:57;10.48;;;7.38;;
51312;SDS011;37397;53.226;10.400;2023-06-26T06:53:24;11.55;;;7.47;;
51312;SDS011;37397;53.226;10.400;2023-06-26T06:55:50;10.70;;;7.38;;
51312;SDS011;37397;53.226;10.400;2023-06-26T06:58:17;10.93;;;7.72;;
51312;SDS011;37397;53.226;10.400;2023-06-26T07:00:45;10.80;;;7.97;;
51312;SDS011;37397;53.226;10.400;2023-06-26T07:03:12;13.27;;;8.10;;
51312;SDS011;37397;53.226;10.400;2023-06-26T07:05:40;13.27;;;7.55;;
51312;SDS011;37397;53.226;10.400;2023-06-26T07:08:08;12.95;;;7.63;;
51312;SDS011;37397;53.226;10.400;2023-06-26T07:10:35;10.60;;;7.30;;
51312;SDS011;37397;53.226;10.400;2023-06-26T07:13:02;10.05;;;7.40;;
51312;SDS011;37397;53.226;10.400;2023-06-26T07:15:28;9.48;;;7.00;;
51312;SDS011;37397;53.226;10.400;2023-06-26T07:17:55;12.38;;;7.43;;
51312;SDS011;37397;53.226;10.400;2023-06-26T07:20:21;10.23;;;7.22;;
51312;SDS011;37397;53.226;10.400;2023-06-26T07:22:48;10.77;;;7.55;;
51312;SDS011;37397;53.226;10.400;2023-06-26T07:25:14;13.98;;;7.45;;
51312;SDS011;37397;53.226;10.400;2023-06-26T07:27:41;10.57;;;7.30;;
51312;SDS011;37397;53.226;10.400;2023-06-26T07:30:08;9.70;;;6.93;;
51312;SDS011;37397;53.226;10.400;2023-06-26T07:32:35;10.15;;;6.55;;
51312;SDS011;37397;53.226;10.400;2023-06-26T07:35:02;10.70;;;7.18;;
51312;SDS011;37397;53.226;10.400;2023-06-26T07:37:29;11.18;;;7.15;;
51312;SDS011;37397;53.226;10.400;2023-06-26T07:39:56;9.25;;;6.65;;
51312;SDS011;37397;53.226;10.400;2023-06-26T07:42:23;9.85;;;6.82;;
51312;SDS011;37397;53.226;10.400;2023-06-26T07:44:49;10.23;;;6.50;;
51312;SDS011;37397;53.226;10.400;2023-06-26T07:47:16;10.10;;;7.28;;
51312;SDS011;37397;53.226;10.400;2023-06-26T07:49:43;9.73;;;6.97;;
51312;SDS011;37397;53.226;10.400;2023-06-26T07:52:09;8.35;;;6.53;;
51312;SDS011;37397;53.226;10.400;2023-06-26T07:54:41;11.65;;;6.63;;
51312;SDS011;37397;53.226;10.400;2023-06-26T07:57:08;9.15;;;6.80;;
51312;SDS011;37397;53.226;10.400;2023-06-26T07:59:35;9.73;;;7.15;;
51312;SDS011;37397;53.226;10.400;2023-06-26T08:02:02;10.55;;;7.05;;
51312;SDS011;37397;53.226;10.400;2023-06-26T08:04:28;11.02;;;7.65;;
51312;SDS011;37397;53.226;10.400;2023-06-26T08:07:00;9.13;;;6.90;;
51312;SDS011;37397;53.226;10.400;2023-06-26T08:09:28;9.02;;;7.32;;
51312;SDS011;37397;53.226;10.400;2023-06-26T08:11:55;10.85;;;7.65;;
51312;SDS011;37397;53.226;10.400;2023-06-26T08:14:22;9.73;;;7.90;;
51312;SDS011;37397;53.226;10.400;2023-06-26T08:16:49;9.40;;;7.65;;
51312;SDS011;37397;53.226;10.400;2023-06-26T08:19:16;10.90;;;7.72;;
51312;SDS011;37397;53.226;10.400;2023-06-26T08:21:43;9.77;;;7.18;;
51312;SDS011;37397;53.226;10.400;2023-06-26T08:24:10;10.95;;;7.75;;
51312;SDS011;37397;53.226;10.400;2023-06-26T08:26:37;10.43;;;6.70;;
51312;SDS011;37397;53.226;10.400;2023-06-26T08:29:04;11.15;;;6.60;;
51312;SDS011;37397;53.226;10.400;2023-06-26T08:34:05;9.23;;;7.28;;
51312;SDS011;37397;53.226;10.400;2023-06-26T08:36:32;10.43;;;7.35;;
51312;SDS011;37397;53.226;10.400;2023-06-26T08:38:59;10.77;;;7.13;;
51312;SDS011;37397;53.226;10.400;2023-06-26T08:41:26;10.55;;;7.38;;
51312;SDS011;37397;53.226;10.400;2023-06-26T08:43:52;11.07;;;7.60;;
51312;SDS011;37397;53.226;10.400;2023-06-26T08:46:19;8.13;;;6.97;;
51312;SDS011;37397;53.226;10.400;2023-06-26T08:48:53;10.77;;;7.38;;
51312;SDS011;37397;53.226;10.400;2023-06-26T08:51:23;10.20;;;7.38;;
51312;SDS011;37397;53.226;10.400;2023-06-26T08:53:56;11.20;;;7.00;;
51312;SDS011;37397;53.226;10.400;2023-06-26T08:56:25;10.50;;;7.70;;
51312;SDS011;37397;53.226;10.400;2023-06-26T08:58:58;9.32;;;6.95;;
51312;SDS011;37397;53.226;10.400;2023-06-26T09:01:25;12.18;;;8.05;;
51312;SDS011;37397;53.226;10.400;2023-06-26T09:03:51;9.13;;;7.30;;
51312;SDS011;37397;53.226;10.400;2023-06-26T09:06:18;11.05;;;7.65;;
51312;SDS011;37397;53.226;10.400;2023-06-26T09:08:45;9.70;;;7.80;;
51312;SDS011;37397;53.226;10.400;2023-06-26T09:11:12;11.35;;;7.07;;
51312;SDS011;37397;53.226;10.400;2023-06-26T09:13:39;9.93;;;7.55;;
51312;SDS011;37397;53.226;10.400;2023-06-26T09:16:06;10.57;;;7.53;;
51312;SDS011;37397;53.226;10.400;2023-06-26T09:18:37;11.10;;;7.88;;
51312;SDS011;37397;53.226;10.400;2023-06-26T09:21:06;10.00;;;7.75;;
51312;SDS011;37397;53.226;10.400;2023-06-26T09:23:34;10.73;;;8.35;;
51312;SDS011;37397;53.226;10.400;2023-06-26T09:26:02;11.63;;;8.85;;
51312;SDS011;37397;53.226;10.400;2023-06-26T09:28:30;11.20;;;8.30;;
51312;SDS011;37397;53.226;10.400;2023-06-26T09:31:06;9.65;;;7.32;;
51312;SDS011;37397;53.226;10.400;2023-06-26T09:33:35;9.27;;;7.75;;
51312;SDS011;37397;53.226;10.400;2023-06-26T09:36:06;9.45;;;7.10;;
51312;SDS011;37397;53.226;10.400;2023-06-26T09:38:34;10.20;;;7.65;;
51312;SDS011;37397;53.226;10.400;2023-06-26T09:41:02;10.07;;;7.47;;
51312;SDS011;37397;53.226;10.400;2023-06-26T09:43:30;9.52;;;7.57;;
51312;SDS011;37397;53.226;10.400;2023-06-26T09:45:58;9.68;;;7.38;;
51312;SDS011;37397;53.226;10.400;2023-06-26T09:48:27;9.68;;;7.60;;
51312;SDS011;37397;53.226;10.400;2023-06-26T09:50:54;11.02;;;8.15;;
51312;SDS011;37397;53.226;10.400;2023-06-26T09:53:37;9.17;;;7.63;;
51312;SDS011;37397;53.226;10.400;2023-06-26T09:56:07;12.57;;;8.65;;
51312;SDS011;37397;53.226;10.400;2023-06-26T09:58:41;11.32;;;8.60;;
51312;SDS011;37397;53.226;10.400;2023-06-26T10:01:08;12.60;;;8.35;;
51312;SDS011;37397;53.226;10.400;2023-06-26T10:03:36;13.18;;;7.88;;
51312;SDS011;37397;53.226;10.400;2023-06-26T10:06:02;12.23;;;8.88;;
51312;SDS011;37397;53.226;10.400;2023-06-26T10:08:30;12.98;;;9.38;;
51312;SDS011;37397;53.226;10.400;2023-06-26T10:10:58;11.50;;;9.05;;
51312;SDS011;37397;53.226;10.400;2023-06-26T10:13:31;11.23;;;8.85;;
51312;SDS011;37397;53.226;10.400;2023-06-26T10:16:04;13.10;;;9.68;;
51312;SDS011;37397;53.226;10.400;2023-06-26T10:18:34;12.18;;;9.75;;
51312;SDS011;37397;53.226;10.400;2023-06-26T10:21:02;13.15;;;9.38;;
51312;SDS011;37397;53.226;10.400;2023-06-26T10:23:31;11.60;;;9.18;;
51312;SDS011;37397;53.226;10.400;2023-06-26T10:26:01;11.73;;;10.18;;
51312;SDS011;37397;53.226;10.400;2023-06-26T10:28:29;12.80;;;9.40;;
51312;SDS011;37397;53.226;10.400;2023-06-26T10:30:59;13.82;;;9.98;;
51312;SDS011;37397;53.226;10.400;2023-06-26T10:33:27;14.02;;;9.55;;
51312;SDS011;37397;53.226;10.400;2023-06-26T10:36:11;13.30;;;9.85;;
51312;SDS011;37397;53.226;10.400;2023-06-26T10:38:51;15.00;;;10.27;;
51312;SDS011;37397;53.226;10.400;2023-06-26T10:41:20;18.00;;;9.82;;
51312;SDS011;37397;53.226;10.400;2023-06-26T10:44:05;13.35;;;10.48;;
51312;SDS011;37397;53.226;10.400;2023-06-26T10:46:48;16.42;;;9.43;;
51312;SDS011;37397;53.226;10.400;2023-06-26T10:49:20;15.88;;;8.90;;
51312;SDS011;37397;53.226;10.400;2023-06-26T10:51:47;15.25;;;7.20;;
51312;SDS011;37397;53.226;10.400;2023-06-26T10:54:18;14.63;;;7.03;;
51312;SDS011;37397;53.226;10.400;2023-06-26T10:56:49;12.68;;;5.75;;
51312;SDS011;37397;53.226;10.400;2023-06-26T10:59:21;7.60;;;5.13;;
51312;SDS011;37397;53.226;10.400;2023-06-26T11:02:01;11.15;;;5.35;;
51312;SDS011;37397;53.226;10.400;2023-06-26T11:04:40;16.02;;;6.07;;
51312;SDS011;37397;53.226;10.400;2023-06-26T11:07:21;15.63;;;6.63;;
51312;SDS011;37397;53.226;10.400;2023-06-26T11:09:56;13.32;;;5.93;;
51312;SDS011;37397;53.226;10.400;2023-06-26T11:15:07;11.18;;;5.43;;
51312;SDS011;37397;53.226;10.400;2023-06-26T11:17:35;10.48;;;5.65;;
51312;SDS011;37397;53.226;10.400;2023-06-26T11:20:06;9.15;;;5.22;;
51312;SDS011;37397;53.226;10.400;2023-06-26T11:22:39;11.33;;;5.50;;
51312;SDS011;37397;53.226;10.400;2023-06-26T11:25:08;9.20;;;5.80;;
51312;SDS011;37397;53.226;10.400;2023-06-26T11:27:42;10.98;;;5.88;;
51312;SDS011;37397;53.226;10.400;2023-06-26T11:30:10;8.43;;;5.90;;
51312;SDS011;37397;53.226;10.400;2023-06-26T11:32:38;8.88;;;5.80;;
51312;SDS011;37397;53.226;10.400;2023-06-26T11:35:05;11.60;;;6.78;;
51312;SDS011;37397;53.226;10.400;2023-06-26T11:37:32;9.57;;;6.50;;
51312;SDS011;37397;53.226;10.400;2023-06-26T11:40:15;9.55;;;6.50;;
51312;SDS011;37397;53.226;10.400;2023-06-26T11:42:42;11.77;;;7.18;;
51312;SDS011;37397;53.226;10.400;2023-06-26T11:45:10;11.02;;;7.65;;
51312;SDS011;37397;53.226;10.400;2023-06-26T11:47:37;13.05;;;7.88;;
51312;SDS011;37397;53.226;10.400;2023-06-26T11:50:05;12.73;;;7.53;;
51312;SDS011;37397;53.226;10.400;2023-06-26T11:52:34;9.63;;;7.03;;
51312;SDS011;37397;53.226;10.400;2023-06-26T11:55:01;13.95;;;8.20;;
51312;SDS011;37397;53.226;10.400;2023-06-26T11:57:28;12.25;;;7.18;;
51312;SDS011;37397;53.226;10.400;2023-06-26T11:59:56;12.43;;;7.65;;
51312;SDS011;37397;53.226;10.400;2023-06-26T12:02:23;12.23;;;7.82;;
51312;SDS011;37397;53.226;10.400;2023-06-26T12:04:50;10.35;;;7.47;;
51312;SDS011;37397;53.226;10.400;2023-06-26T12:07:17;12.70;;;7.55;;
51312;SDS011;37397;53.226;10.400;2023-06-26T12:09:46;11.55;;;7.60;;
51312;SDS011;37397;53.226;10.400;2023-06-26T12:12:14;11.60;;;8.07;;
51312;SDS011;37397;53.226;10.400;2023-06-26T12:14:43;12.07;;;7.78;;
51312;SDS011;37397;53.226;10.400;2023-06-26T12:17:11;14.40;;;7.78;;
51312;SDS011;37397;53.226;10.400;2023-06-26T12:19:39;13.80;;;7.13;;
51312;SDS011;37397;53.226;10.400;2023-06-26T12:22:09;9.32;;;5.93;;
51312;SDS011;37397;53.226;10.400;2023-06-26T12:24:38;11.77;;;5.65;;
51312;SDS011;37397;53.226;10.400;2023-06-26T12:27:09;11.48;;;6.10;;
51312;SDS011;37397;53.226;10.400;2023-06-26T12:29:39;10.50;;;4.80;;
51312;SDS011;37397;53.226;10.400;2023-06-26T12:32:08;9.23;;;5.00;;
51312;SDS011;37397;53.226;10.400;2023-06-26T12:34:37;12.52;;;5.22;;
51312;SDS011;37397;53.226;10.400;2023-06-26T12:37:09;10.55;;;4.75;;
51312;SDS011;37397;53.226;10.400;2023-06-26T12:39:55;10.77;;;4.60;;
51312;SDS011;37397;53.226;10.400;2023-06-26T12:42:24;13.30;;;4.30;;
51312;SDS011;37397;53.226;10.400;2023-06-26T12:44:52;11.63;;;4.30;;
51312;SDS011;37397;53.226;10.400;2023-06-26T12:47:26;10.00;;;4.30;;
51312;SDS011;37397;53.226;10.400;2023-06-26T12:49:54;9.65;;;4.05;;
51312;SDS011;37397;53.226;10.400;2023-06-26T12:52:21;11.60;;;4.13;;
51312;SDS011;37397;53.226;10.400;2023-06-26T12:54:51;8.90;;;3.80;;
51312;SDS011;37397;53.226;10.400;2023-06-26T12:57:19;8.68;;;3.13;;
51312;SDS011;37397;53.226;10.400;2023-06-26T12:59:45;8.43;;;3.20;;
51312;SDS011;37397;53.226;10.400;2023-06-26T13:02:12;9.02;;;3.17;;
51312;SDS011;37397;53.226;10.400;2023-06-26T13:04:39;8.75;;;2.70;;
51312;SDS011;37397;53.226;10.400;2023-06-26T13:07:07;10.65;;;3.20;;
51312;SDS011;37397;53.226;10.400;2023-06-26T13:09:35;10.27;;;3.42;;
51312;SDS011;37397;53.226;10.400;2023-06-26T13:12:03;8.77;;;3.10;;
51312;SDS011;37397;53.226;10.400;2023-06-26T13:14:31;10.93;;;3.08;;
51312;SDS011;37397;53.226;10.400;2023-06-26T13:17:00;7.50;;;3.03;;
51312;SDS011;37397;53.226;10.400;2023-06-26T13:19:28;7.25;;;2.83;;
51312;SDS011;37397;53.226;10.400;2023-06-26T13:21:54;8.02;;;2.88;;
51312;SDS011;37397;53.226;10.400;2023-06-26T13:24:21;6.45;;;2.75;;
51312;SDS011;37397;53.226;10.400;2023-06-26T13:26:47;8.05;;;2.97;;
51312;SDS011;37397;53.226;10.400;2023-06-26T13:29:14;6.60;;;2.58;;
51312;SDS011;37397;53.226;10.400;2023-06-26T13:31:42;8.73;;;2.97;;
51312;SDS011;37397;53.226;10.400;2023-06-26T13:34:08;6.93;;;2.72;;
51312;SDS011;37397;53.226;10.400;2023-06-26T13:36:35;6.63;;;2.72;;
51312;SDS011;37397;53.226;10.400;2023-06-26T13:39:02;9.40;;;2.83;;
51312;SDS011;37397;53.226;10.400;2023-06-26T13:41:29;8.73;;;2.90;;
51312;SDS011;37397;53.226;10.400;2023-06-26T13:43:56;7.75;;;3.05;;
51312;SDS011;37397;53.226;10.400;2023-06-26T13:46:30;10.57;;;3.05;;
51312;SDS011;37397;53.226;10.400;2023-06-26T13:48:57;7.63;;;2.88;;
51312;SDS011;37397;53.226;10.400;2023-06-26T13:51:23;8.13;;;3.22;;
51312;SDS011;37397;53.226;10.400;2023-06-26T13:53:51;7.05;;;2.65;;
51312;SDS011;37397;53.226;10.400;2023-06-26T13:56:17;9.23;;;3.00;;
51312;SDS011;37397;53.226;10.400;2023-06-26T13:58:44;8.65;;;3.20;;
51312;SDS011;37397;53.226;10.400;2023-06-26T14:01:10;8.10;;;2.80;;
51312;SDS011;37397;53.226;10.400;2023-06-26T14:03:37;7.47;;;2.83;;
51312;SDS011;37397;53.226;10.400;2023-06-26T14:06:03;9.30;;;2.60;;
51312;SDS011;37397;53.226;10.400;2023-06-26T14:08:30;9.18;;;2.75;;
51312;SDS011;37397;53.226;10.400;2023-06-26T14:10:57;8.13;;;2.75;;
51312;SDS011;37397;53.226;10.400;2023-06-26T14:13:23;8.25;;;2.75;;
51312;SDS011;37397;53.226;10.400;2023-06-26T14:15:50;7.35;;;2.80;;
51312;SDS011;37397;53.226;10.400;2023-06-26T14:18:19;7.50;;;2.83;;
51312;SDS011;37397;53.226;10.400;2023-06-26T14:20:47;6.90;;;2.65;;
51312;SDS011;37397;53.226;10.400;2023-06-26T14:23:14;8.30;;;2.88;;
51312;SDS011;37397;53.226;10.400;2023-06-26T14:25:40;5.75;;;2.60;;
51312;SDS011;37397;53.226;10.400;2023-06-26T14:28:07;7.93;;;2.53;;
51312;SDS011;37397;53.226;10.400;2023-06-26T14:30:33;7.80;;;2.55;;
51312;SDS011;37397;53.226;10.400;2023-06-26T14:33:00;8.52;;;2.50;;
51312;SDS011;37397;53.226;10.400;2023-06-26T14:35:27;5.47;;;2.40;;
51312;SDS011;37397;53.226;10.400;2023-06-26T14:37:53;5.60;;;2.30;;